< Typhoon 196622 1966 Season Typhoon 196624 >
Typhoon 196623 (GRACE)
General InformationTrack Information on Google Maps || Disaster Info.ResourceGoogle EarthGE AnimationAtom FeedGeoJSON
Detalied Best Track (Time Zone = UTC)
Year Month Day Hour Lat. Long. Pressure (hPa) Wind (kt) Class Image Chart
1966 9 13 00 21.5 151.0 1004 0 2 -- Chart
1966 9 13 06 22.0 150.9 1000 0 2 -- Chart
1966 9 13 12 22.6 150.8 998 0 2 -- Chart
1966 9 13 18 23.5 150.8 994 0 2 -- Chart
1966 9 14 00 24.1 150.7 990 0 9 -- Chart
1966 9 14 06 24.9 150.6 986 0 9 -- Chart
1966 9 14 12 25.8 150.5 982 0 9 -- Chart
1966 9 14 18 26.8 150.6 982 0 9 -- Chart
1966 9 15 00 28.0 151.1 980 0 9 -- Chart
1966 9 15 06 28.8 151.9 980 0 9 -- Chart
1966 9 15 12 30.2 153.0 978 0 9 -- Chart
1966 9 15 18 32.0 155.0 976 0 9 -- Chart
1966 9 16 00 34.0 156.9 975 0 9 -- Chart
1966 9 16 06 35.6 159.7 972 0 9 -- Chart
1966 9 16 12 37.0 162.8 972 0 9 -- Chart
1966 9 16 18 38.2 166.0 975 0 9 -- Chart
1966 9 17 00 40.0 170.5 980 0 9 -- Chart
1966 9 17 06 41.0 175.0 985 0 9 -- Chart
1966 9 17 12 41.0 180.0 985 0 9 -- Chart
1966 9 17 18 42.0 185.0 985 0 6 -- Chart
Japan Meteorological Agency Best Track Data | Correction Date : 1989-06-01
< Typhoon 196622 1966 Season Typhoon 196624 >

Help